createdAt,value
2023-04-17T00:02:22.501Z,20.45
2023-04-17T00:07:28.402Z,24.45
2023-04-17T00:12:32.520Z,21.58
2023-04-17T00:17:35.467Z,22.35
2023-04-17T00:22:38.317Z,24.15
2023-04-17T00:27:42.895Z,22.27
2023-04-17T00:32:45.964Z,23.17
2023-04-17T00:37:49.302Z,22.65
2023-04-17T00:42:56.249Z,21.60
2023-04-17T00:48:02.268Z,23.00
2023-04-17T00:53:05.123Z,23.48
2023-04-17T00:58:10.097Z,21.95
2023-04-17T01:03:13.304Z,20.65
2023-04-17T01:08:16.612Z,22.75
2023-04-17T01:13:20.858Z,22.67
2023-04-17T01:18:23.752Z,23.80
2023-04-17T01:23:28.485Z,21.60
2023-04-17T01:28:32.579Z,21.70
2023-04-17T01:33:35.385Z,21.88
2023-04-17T01:38:38.585Z,20.90
2023-04-17T01:43:44.084Z,24.83
2023-04-17T01:48:47.650Z,23.60
2023-04-17T01:53:50.456Z,23.15
2023-04-17T01:58:54.631Z,24.40
2023-04-17T02:03:57.627Z,24.73
2023-04-17T02:09:00.650Z,23.67
2023-04-17T02:14:04.769Z,24.10
2023-04-17T02:19:07.553Z,25.40
2023-04-17T02:24:10.393Z,23.92
2023-04-17T02:29:14.670Z,26.65
2023-04-17T02:34:18.069Z,28.00
2023-04-17T02:39:21.478Z,28.63
2023-04-17T02:44:25.626Z,29.73
2023-04-17T02:49:28.493Z,29.77
2023-04-17T02:54:32.432Z,28.50
2023-04-17T02:59:36.975Z,27.73
2023-04-17T03:04:39.785Z,30.52
2023-04-17T03:09:42.723Z,30.33
2023-04-17T03:14:47.474Z,29.30
2023-04-17T03:19:50.257Z,26.02
2023-04-17T03:24:53.245Z,30.25
2023-04-17T03:29:59.182Z,26.98
2023-04-17T03:35:03.151Z,26.48
2023-04-17T03:40:08.824Z,27.50
2023-04-17T03:45:13.274Z,28.23
2023-04-17T03:50:16.468Z,27.77
2023-04-17T03:55:26.153Z,31.75
2023-04-17T04:00:32.602Z,29.48
2023-04-17T04:05:41.757Z,30.45
2023-04-17T04:10:47.091Z,30.10
2023-04-17T04:15:57.383Z,28.73
2023-04-17T04:21:03.458Z,29.05
2023-04-17T04:31:18.715Z,28.00
2023-04-17T04:36:23.071Z,28.60
2023-04-17T04:41:34.928Z,28.63
2023-04-17T04:46:42.441Z,32.13
2023-04-17T04:51:45.418Z,29.75
2023-04-17T04:56:49.069Z,29.65
2023-04-17T05:01:53.864Z,30.83
2023-04-17T05:12:05.633Z,28.92
2023-04-17T05:17:10.731Z,29.52
2023-04-17T05:22:14.666Z,30.45
2023-04-17T05:27:35.426Z,32.03
2023-04-17T05:32:40.795Z,32.47
2023-04-17T05:38:05.724Z,33.03
2023-04-17T05:43:10.469Z,33.13
2023-04-17T05:48:15.835Z,32.65
2023-04-17T05:53:19.684Z,32.50
2023-04-17T05:58:26.732Z,33.00
2023-04-17T06:03:34.005Z,34.45
2023-04-17T06:08:44.600Z,32.10
2023-04-17T06:13:47.522Z,31.70
2023-04-17T06:18:53.703Z,29.95
2023-04-17T06:23:56.607Z,30.10
2023-04-17T06:29:00.829Z,29.13
2023-04-17T06:34:09.255Z,29.17
2023-04-17T06:39:17.125Z,33.75
2023-04-17T06:44:22.372Z,30.08
2023-04-17T06:49:27.588Z,30.27
2023-04-17T06:54:30.394Z,28.50
2023-04-17T06:59:35.729Z,28.50
2023-04-17T07:04:40.442Z,25.17
2023-04-17T07:09:45.293Z,22.20
2023-04-17T07:14:48.143Z,23.52
2023-04-17T07:19:52.444Z,21.40
2023-04-17T07:24:55.345Z,23.13
2023-04-17T07:29:58.135Z,18.05
2023-04-17T07:35:02.999Z,14.15
2023-04-17T07:40:10.348Z,12.65
2023-04-17T07:45:13.525Z,11.82
2023-04-17T07:50:19.720Z,13.10
2023-04-17T07:55:22.752Z,12.63
2023-04-17T08:00:25.615Z,11.02
2023-04-17T08:05:30.133Z,11.57
2023-04-17T08:10:32.960Z,11.48
2023-04-17T08:15:40.688Z,10.70
2023-04-17T08:20:44.884Z,35.08
2023-04-17T08:25:49.921Z,29.98
2023-04-17T08:30:53.889Z,13.70
2023-04-17T08:35:59.083Z,13.50
2023-04-17T08:41:07.981Z,13.55
2023-04-17T08:46:11.398Z,13.00
2023-04-17T08:51:16.216Z,11.45
2023-04-17T08:56:18.957Z,11.43
2023-04-17T09:01:21.860Z,11.18
2023-04-17T09:06:29.200Z,11.27
2023-04-17T09:11:31.965Z,10.60
2023-04-17T09:16:36.215Z,9.65
2023-04-17T09:21:40.544Z,9.00
2023-04-17T09:26:43.360Z,10.93
2023-04-17T09:31:47.591Z,10.88
2023-04-17T09:36:55.909Z,11.18
2023-04-17T09:42:03.789Z,11.55
2023-04-17T09:47:08.773Z,11.25
2023-04-17T09:52:14.263Z,10.85
2023-04-17T09:57:19.110Z,11.40
2023-04-17T10:02:22.645Z,10.60
2023-04-17T10:07:27.918Z,10.93
2023-04-17T10:12:33.324Z,9.10
2023-04-17T10:17:38.190Z,9.52
2023-04-17T10:22:43.913Z,9.75
2023-04-17T10:27:49.953Z,10.50
2023-04-17T10:33:22.872Z,9.98
2023-04-17T10:38:37.448Z,9.73
2023-04-17T10:43:45.903Z,8.73
2023-04-17T10:48:52.057Z,9.15
2023-04-17T10:53:58.890Z,8.90
2023-04-17T10:59:03.283Z,8.95
2023-04-17T11:04:06.866Z,9.35
2023-04-17T11:09:12.127Z,8.18
2023-04-17T11:14:19.379Z,9.23
2023-04-17T11:19:23.537Z,8.27
2023-04-17T11:24:30.079Z,5.95
2023-04-17T11:29:33.679Z,7.05
2023-04-17T11:34:38.669Z,6.57
2023-04-17T11:39:45.014Z,6.20
2023-04-17T11:44:48.632Z,6.15
2023-04-17T11:49:52.599Z,7.10
2023-04-17T11:55:00.021Z,6.47
2023-04-17T12:00:14.436Z,6.65
2023-04-17T12:05:18.557Z,5.68
2023-04-17T12:10:24.815Z,4.97
2023-04-17T12:15:27.636Z,4.78
2023-04-17T12:20:32.266Z,4.03
2023-04-17T12:25:37.017Z,3.85
2023-04-17T12:30:39.874Z,3.67
2023-04-17T12:35:43.610Z,3.33
2023-04-17T12:40:47.723Z,4.32
2023-04-17T12:45:50.850Z,4.78
2023-04-17T12:50:54.463Z,4.28
2023-04-17T12:55:58.604Z,4.38
2023-04-17T13:01:03.531Z,3.95
2023-04-17T13:06:06.558Z,4.57
2023-04-17T13:11:13.056Z,4.10
2023-04-17T13:16:16.137Z,4.38
2023-04-17T13:21:19.138Z,5.15
2023-04-17T13:26:26.683Z,3.80
2023-04-17T13:31:31.728Z,4.05
2023-04-17T13:36:35.126Z,3.35
2023-04-17T13:41:39.399Z,3.55
2023-04-17T13:46:44.263Z,3.75
2023-04-17T13:51:47.189Z,4.53
2023-04-17T13:56:51.509Z,4.28
2023-04-17T14:01:55.220Z,4.53
2023-04-17T14:07:00.893Z,4.25
2023-04-17T14:12:08.105Z,4.53
2023-04-17T14:17:11.206Z,4.10
2023-04-17T14:22:15.360Z,3.58
2023-04-17T14:27:20.147Z,4.20
2023-04-17T14:32:23.873Z,3.95
2023-04-17T14:37:28.343Z,5.13
2023-04-17T14:42:38.253Z,4.03
2023-04-17T14:47:56.401Z,4.13
2023-04-17T14:53:02.986Z,4.55
2023-04-17T14:58:07.261Z,3.90
2023-04-17T15:03:10.145Z,4.57
2023-04-17T15:08:13.339Z,5.18
2023-04-17T15:13:17.433Z,6.70
2023-04-17T15:18:20.845Z,5.68
2023-04-17T15:23:25.413Z,6.18
2023-04-17T15:28:29.631Z,5.72
2023-04-17T15:33:32.448Z,5.32
2023-04-17T15:38:38.304Z,5.70
2023-04-17T15:43:42.576Z,5.53
2023-04-17T15:48:54.975Z,4.70
2023-04-17T15:54:08.276Z,4.57
2023-04-17T15:59:13.131Z,5.85
2023-04-17T16:04:19.378Z,5.50
2023-04-17T16:09:24.523Z,6.25
2023-04-17T16:14:29.414Z,6.10
2023-04-17T16:19:33.028Z,7.68
2023-04-17T16:24:35.955Z,5.93
2023-04-17T16:29:40.311Z,5.30
2023-04-17T16:34:43.974Z,5.82
2023-04-17T16:39:52.396Z,5.25
2023-04-17T16:45:00.181Z,7.15
2023-04-17T16:50:04.804Z,5.18
2023-04-17T16:55:10.132Z,7.32
2023-04-17T17:00:15.377Z,7.55
2023-04-17T17:05:18.143Z,7.82
2023-04-17T17:10:21.094Z,7.15
2023-04-17T17:15:25.680Z,6.55
2023-04-17T17:20:30.035Z,7.90
2023-04-17T17:25:33.312Z,7.55
2023-04-17T17:30:37.644Z,6.93
2023-04-17T17:35:40.500Z,5.63
2023-04-17T17:40:46.176Z,8.20
2023-04-17T17:45:51.980Z,13.18
2023-04-17T17:50:55.004Z,10.55
2023-04-17T17:55:58.311Z,7.57
2023-04-17T18:01:03.325Z,6.45
2023-04-17T18:06:06.331Z,6.45
2023-04-17T18:11:09.026Z,5.82
2023-04-17T18:16:13.185Z,7.78
2023-04-17T18:21:15.962Z,7.20
2023-04-17T18:26:19.415Z,7.28
2023-04-17T18:31:25.137Z,8.35
2023-04-17T18:36:28.929Z,8.53
2023-04-17T18:41:32.342Z,8.63
2023-04-17T18:46:37.614Z,8.02
2023-04-17T18:51:45.366Z,8.07
2023-04-17T18:56:48.250Z,8.30
2023-04-17T19:01:52.445Z,9.60
2023-04-17T19:06:55.293Z,8.40
2023-04-17T19:11:58.561Z,6.75
2023-04-17T19:17:03.349Z,7.35
2023-04-17T19:22:06.458Z,7.00
2023-04-17T19:27:09.188Z,6.55
2023-04-17T19:32:16.328Z,7.20
2023-04-17T19:37:20.090Z,7.97
2023-04-17T19:42:24.880Z,8.85
2023-04-17T19:47:31.047Z,7.05
2023-04-17T19:52:33.955Z,7.40
2023-04-17T19:57:37.164Z,7.10
2023-04-17T20:02:41.685Z,7.35
2023-04-17T20:07:44.495Z,7.20
2023-04-17T20:12:47.421Z,8.45
2023-04-17T20:17:52.116Z,7.05
2023-04-17T20:22:54.897Z,7.63
2023-04-17T20:27:58.201Z,7.07
2023-04-17T20:33:02.421Z,7.57
2023-04-17T20:38:06.235Z,6.53
2023-04-17T20:43:09.493Z,9.43
2023-04-17T20:48:13.686Z,6.45
2023-04-17T20:53:16.894Z,6.43
2023-04-17T20:58:20.095Z,6.65
2023-04-17T21:03:24.731Z,7.78
2023-04-17T21:08:27.861Z,6.80
2023-04-17T21:13:30.896Z,7.05
2023-04-17T21:18:35.372Z,7.40
2023-04-17T21:23:40.250Z,7.10
2023-04-17T21:28:43.654Z,7.15
2023-04-17T21:33:47.745Z,6.70
2023-04-17T21:38:50.477Z,8.82
2023-04-17T21:43:53.604Z,7.10
2023-04-17T21:48:57.954Z,7.20
2023-04-17T21:54:00.692Z,7.75
2023-04-17T21:59:03.553Z,7.63
2023-04-17T22:04:07.667Z,8.82
2023-04-17T22:09:10.500Z,8.77
2023-04-17T22:14:13.640Z,7.75
2023-04-17T22:19:17.804Z,8.60
2023-04-17T22:24:20.662Z,8.73
2023-04-17T22:29:23.428Z,8.43
2023-04-17T22:34:27.480Z,8.20
2023-04-17T22:39:30.488Z,8.52
2023-04-17T22:44:34.249Z,9.43
2023-04-17T22:49:38.743Z,9.00
2023-04-17T22:54:41.468Z,8.93
2023-04-17T22:59:44.232Z,8.57
2023-04-17T23:04:48.271Z,7.80
2023-04-17T23:09:51.025Z,7.80
2023-04-17T23:14:53.860Z,9.05
2023-04-17T23:19:57.908Z,9.52
2023-04-17T23:25:00.650Z,8.75
2023-04-17T23:30:03.664Z,9.60
2023-04-17T23:35:10.236Z,8.80
2023-04-17T23:40:13.664Z,8.38
2023-04-17T23:45:16.415Z,9.55
2023-04-17T23:50:20.704Z,9.93
2023-04-17T23:55:26.284Z,10.07
